LEVD/VLL METAR and TAF weather

Enter ICAO airport designator
Station Type Date Time Source
LEVD METAR 2019/02/22 20:30 UTC NOAA

LEVD 222030Z 02006KT CAVOK 06/M02 Q1030


Station Type Date Time Source
LEVD Decoded METAR 2019/02/22 20:30 UTC NOAA

Valladolid / Villanubla, Spain (LEVD) 41-43N 004-51W 846M
Feb 22, 2019 - 03:30 PM EST / 2019.02.22 2030 UTC
Wind: from the NNE (020 degrees) at 7 MPH (6 KT):0
Visibility: greater than 7 mile(s):0
Temperature: 42 F (6 C)
Dew Point: 28 F (-2 C)
Relative Humidity: 56%
Pressure (altimeter): 30.42 in. Hg (1030 hPa)
ob: LEVD 222030Z 02006KT CAVOK 06/M02 Q1030
cycle: 20

Station Type Date Time Source
LEVD TAF 2019/02/22 18:27 UTC NOAA

TAF LEVD 221700Z 2218/2318 VRB04KT CAVOK TX16/2316Z TN00/2307Z


Example: see airport list